Riverton Regional Airport
KRIW : rendu visible

Aérodrome :











RETROUVEZ-NOUS SUR...

 
LOGIN :

S'inscrire | Disclaimer

   EN    FR    IT 

 









Légende :    VFR   VFR Marginal   IFR   IFR Intensif   IFR Très Intensif
Visi : 
Plafond : 
>= 8 km
>= 3000ft
5 à 8 km
1000 à 3000 ft
1500m à 5 km
500 à 1000 ft
800 à 1500m
200 à 500 ft
< 800m
< 200 ft
Symboles :   Orages  Brouillard  Fortes neiges  Fortes précipitations  Vent > 20 kt






- Altitude de l'aérodrome : 5525 ft


KRIW - Riverton Regional

DERNIER METAR :
  • 140653Z AUTO 08007KT 10SM CLR 14/04 A3004 RMK AO2 SLP106 T01440039 403220128

METARs EXPIRÉS :
  • 140553Z AUTO 11006KT 10SM CLR 17/04 A3003 RMK AO2 SLP099 T01670044 10294 20167 51021
  • 140453Z AUTO 05009KT 10SM FEW120 17/05 A3001 RMK AO2 SLP094 T01720050

TAF KRIW
Valide du 14 à 06h jusqu'au 15 à 06h UTC


140534Z 1406/1506 04010KT P6SM SCT110
FM141000 06006KT P6SM FEW100
FM141800 03008KT P6SM SCT110
FM150200 03006KT P6SM SKC
FIR KZLC / Amérique du Nord



MET'MAP, la Météo Aéronautique d'un coup d'oeil ! - Copyright ORBIFLY Décembre 2007 - Disclaimer

ORBIFLY MET'MAP TEAM :

Programmation & Développement : Alexandra Zaïnal
Sur une idée originale de : Baudouin d'Aumeries
Assistance à la programmation : Marc-Olivier Méhu
Soutien technique & logistique : Manuel Goepfert

Contact : metmap@orbifly.com




SOURCES & CREDITS :

   NOAA       Earth
Advisory